Jacksonville NAS, Florida
Current Conditions -  °F | °C
As of 10:53 AM on Thursday 29 Jan 2015 (Local Time) from KNIP Reporting Station
Scattered Clouds Scattered Clouds  
Wind Chill: 57°   Ceiling: Unl
Heat Index: 57°   Visibility: 10mi
Dew Point: 42°   Wind: 8mph
Humidity: 57%   Direction: 340°NNW
Pressure: 30.37"   Gusts: NA
Location:  30.23°N, 81.68°W
Report Text: KNIP 291553Z 34007KT 10SM SCT250 14/06 A3037 RMK AO2 SLP279 T01390056
Loading
Personal Weather Stations






























Interactive Weather Map New forecast layout! Learn more

10-Day Weather Forecast

Advertisements
Track Severe Weather on mobile